Grouse Creek, UT (84313)

4:12 AM MST on February 21, 2017 (GMT -0700)
MUUEPO | | Change Station
Active Advisory: Wind Advisory

Elev 5740 ft 41.53 °N, 113.70 °W | Updated 4 minutes ago

Clear
Clear
42.0 °F
Feels Like 36 °F
N
10.0
Wind Variable Wind from SSW
Gusts 13.0 mph

Today
High -- | Low -- °F
--% Chance of Precip.
Yesterday
High -- | Low -- °F
Precip. -- in
Pressure 29.83 in
Visibility 10.0 miles
Clouds Overcast 10000 ft
Windchill 36 °F
Dew Point 31 °F
Humidity 64%
Rainfall 0.08 in
Snow Depth Not available.
7:22 AM 6:16 PM
Waning Crescent, 26% visible
METAR KBYI 211053Z AUTO 21016KT 10SM OVC100 09/02 A2987 RMK AO2 SLP101 T00890022
Pressure 29.83 in
Visibility 10.0 miles
Clouds Overcast 10000 ft
Windchill 36 °F
Dew Point 31 °F
Humidity 64%
Rainfall 0.08 in
Snow Depth Not available.
7:22 AM 6:16 PM
Waning Crescent, 26% visible
METAR KBYI 211053Z AUTO 21016KT 10SM OVC100 09/02 A2987 RMK AO2 SLP101 T00890022

Get Your Daily Forecast Email!

Thanks for signing up!

Be on the lookout for a verification email in your inbox.

You'll start receiving the daily forecast at 8 AM.

×

10-Day Weather Forecast

Almanac

Astronomy

Feb. 21, 2017 Rise Set
Actual Time
Civil Twilight
Nautical Twilight
Astronomical Twilight
Moon
Length of Visible Light
Length of Day
Tomorrow will be .
, % of the Moon is Illuminated

Today's Extremes

State Highs State Lows

Community

WunderPhotos

Upload Photos

1,962,540 photos uploaded!

WunderBlog® & News

Nearby

Air Quality

  Air Quality AQ Index Pollutant
Not available.

Snow Depth

Station Depth Elevation

Earthquake Activity

City Distance Mag. Time & Date
Minimum magnitude displayed is 2.5.

Coastal Water Temperatures

Place Temperature

Stations

Nearby Weather Stations

Station Location Temp. Windchill Dew Point Humidity Wind Precip. Elev Updated Type
                   

Watches & Warnings

Wind Advisory
Issued: 4:06 AM MST Feb. 21, 2017 – National Weather Service

... Wind Advisory remains in effect until 9 PM MST this evening...

* affected area... the western valleys of Utah including the Salt
Lake and Tooele valleys.

* Winds... south winds of 25 to 35 mph with gusts in excess of 50
mph.

* Timing... winds will remain strong through the day before
diminishing this evening.

* Impacts... strong cross winds will affect east-west oriented
routes including I-80 across northwest Utah and Highway 50
across west central Utah. Light weight and high profile vehicles
should use extra caution.

Precautionary/preparedness actions...

A Wind Advisory means that sustained wind speeds of at least
31 mph or gusts of 45 mph are expected. Motorists in the advisory
area should be prepared for sudden gusty cross winds which can
make driving difficult.





For more information from NOAA/National Weather Service visit...
http://weather.Gov/saltlakecity